sensor_id;sensor_type;location;lat;lon;timestamp;pressure;altitude;pressure_sealevel;temperature;humidity
12881;BME280;6508;53.786;9.996;2024-03-29T00:02:05;98908.56;;;5.89;100.00
12881;BME280;6508;53.786;9.996;2024-03-29T00:04:32;98902.88;;;5.91;100.00
12881;BME280;6508;53.786;9.996;2024-03-29T00:06:58;98911.59;;;5.88;100.00
12881;BME280;6508;53.786;9.996;2024-03-29T00:09:24;98910.66;;;5.84;100.00
12881;BME280;6508;53.786;9.996;2024-03-29T00:11:49;98904.94;;;5.77;100.00
12881;BME280;6508;53.786;9.996;2024-03-29T00:14:15;98904.44;;;5.83;100.00
12881;BME280;6508;53.786;9.996;2024-03-29T00:16:41;98905.91;;;5.81;100.00
12881;BME280;6508;53.786;9.996;2024-03-29T00:19:09;98912.38;;;5.88;100.00
12881;BME280;6508;53.786;9.996;2024-03-29T00:21:35;98911.94;;;5.78;100.00
12881;BME280;6508;53.786;9.996;2024-03-29T00:24:01;98908.47;;;5.69;100.00
12881;BME280;6508;53.786;9.996;2024-03-29T00:26:27;98900.34;;;5.69;100.00
12881;BME280;6508;53.786;9.996;2024-03-29T00:28:52;98904.34;;;5.62;100.00
12881;BME280;6508;53.786;9.996;2024-03-29T00:31:19;98905.47;;;5.61;100.00
12881;BME280;6508;53.786;9.996;2024-03-29T00:33:45;98909.91;;;5.75;100.00
12881;BME280;6508;53.786;9.996;2024-03-29T00:36:12;98905.00;;;5.59;100.00
12881;BME280;6508;53.786;9.996;2024-03-29T00:38:38;98918.69;;;5.54;100.00
12881;BME280;6508;53.786;9.996;2024-03-29T00:41:04;98914.59;;;5.48;100.00
12881;BME280;6508;53.786;9.996;2024-03-29T00:43:30;98919.81;;;5.53;100.00
12881;BME280;6508;53.786;9.996;2024-03-29T00:45:56;98916.97;;;5.50;100.00
12881;BME280;6508;53.786;9.996;2024-03-29T00:48:22;98913.31;;;5.46;100.00
12881;BME280;6508;53.786;9.996;2024-03-29T00:50:49;98922.41;;;5.41;100.00
12881;BME280;6508;53.786;9.996;2024-03-29T00:53:17;98921.94;;;5.39;100.00
12881;BME280;6508;53.786;9.996;2024-03-29T00:55:43;98915.56;;;5.35;100.00
12881;BME280;6508;53.786;9.996;2024-03-29T00:58:09;98912.69;;;5.49;100.00
12881;BME280;6508;53.786;9.996;2024-03-29T01:00:35;98920.19;;;5.34;100.00
12881;BME280;6508;53.786;9.996;2024-03-29T01:03:01;98917.16;;;5.36;100.00
12881;BME280;6508;53.786;9.996;2024-03-29T01:05:28;98915.91;;;5.33;100.00
12881;BME280;6508;53.786;9.996;2024-03-29T01:07:54;98925.44;;;5.31;100.00
12881;BME280;6508;53.786;9.996;2024-03-29T01:10:21;98921.31;;;5.33;100.00
12881;BME280;6508;53.786;9.996;2024-03-29T01:12:47;98920.31;;;5.38;100.00
12881;BME280;6508;53.786;9.996;2024-03-29T01:15:13;98925.25;;;5.36;100.00
12881;BME280;6508;53.786;9.996;2024-03-29T01:17:39;98927.19;;;5.35;100.00
12881;BME280;6508;53.786;9.996;2024-03-29T01:20:06;98927.03;;;5.32;100.00
12881;BME280;6508;53.786;9.996;2024-03-29T01:22:32;98926.25;;;5.31;100.00
12881;BME280;6508;53.786;9.996;2024-03-29T01:24:58;98909.38;;;5.34;100.00
12881;BME280;6508;53.786;9.996;2024-03-29T01:27:25;98918.59;;;5.42;100.00
12881;BME280;6508;53.786;9.996;2024-03-29T01:29:51;98918.44;;;5.39;100.00
12881;BME280;6508;53.786;9.996;2024-03-29T01:32:17;98911.44;;;5.29;100.00
12881;BME280;6508;53.786;9.996;2024-03-29T01:34:43;98916.03;;;5.28;100.00
12881;BME280;6508;53.786;9.996;2024-03-29T01:37:09;98912.25;;;5.21;100.00
12881;BME280;6508;53.786;9.996;2024-03-29T01:39:35;98916.34;;;5.35;100.00
12881;BME280;6508;53.786;9.996;2024-03-29T01:42:01;98909.22;;;5.31;100.00
12881;BME280;6508;53.786;9.996;2024-03-29T01:44:28;98913.50;;;5.32;100.00
12881;BME280;6508;53.786;9.996;2024-03-29T01:46:55;98914.78;;;5.26;100.00
12881;BME280;6508;53.786;9.996;2024-03-29T01:49:23;98915.13;;;5.24;100.00
12881;BME280;6508;53.786;9.996;2024-03-29T01:51:49;98921.16;;;5.30;100.00
12881;BME280;6508;53.786;9.996;2024-03-29T01:54:17;98909.72;;;5.24;100.00
12881;BME280;6508;53.786;9.996;2024-03-29T01:56:44;98913.19;;;5.25;100.00
12881;BME280;6508;53.786;9.996;2024-03-29T01:59:13;98912.09;;;5.26;100.00
12881;BME280;6508;53.786;9.996;2024-03-29T02:01:42;98912.09;;;5.17;100.00
12881;BME280;6508;53.786;9.996;2024-03-29T02:04:09;98915.59;;;5.26;100.00
12881;BME280;6508;53.786;9.996;2024-03-29T02:06:37;98916.56;;;5.22;100.00
12881;BME280;6508;53.786;9.996;2024-03-29T02:09:04;98915.25;;;5.28;100.00
12881;BME280;6508;53.786;9.996;2024-03-29T02:11:32;98905.88;;;5.34;100.00
12881;BME280;6508;53.786;9.996;2024-03-29T02:13:58;98912.88;;;5.35;100.00
12881;BME280;6508;53.786;9.996;2024-03-29T02:16:24;98920.66;;;5.36;100.00
12881;BME280;6508;53.786;9.996;2024-03-29T02:18:53;98925.44;;;5.31;100.00
12881;BME280;6508;53.786;9.996;2024-03-29T02:21:20;98927.19;;;5.35;100.00
12881;BME280;6508;53.786;9.996;2024-03-29T02:23:55;98928.78;;;5.19;100.00
12881;BME280;6508;53.786;9.996;2024-03-29T02:26:22;98932.28;;;5.11;100.00
12881;BME280;6508;53.786;9.996;2024-03-29T02:28:50;98938.03;;;5.01;100.00
12881;BME280;6508;53.786;9.996;2024-03-29T02:31:17;98939.63;;;5.02;100.00
12881;BME280;6508;53.786;9.996;2024-03-29T02:33:44;98935.66;;;4.99;100.00
12881;BME280;6508;53.786;9.996;2024-03-29T02:36:11;98939.63;;;4.93;100.00
12881;BME280;6508;53.786;9.996;2024-03-29T02:38:39;98941.06;;;4.91;100.00
12881;BME280;6508;53.786;9.996;2024-03-29T02:41:07;98943.91;;;4.94;100.00
12881;BME280;6508;53.786;9.996;2024-03-29T02:43:34;98944.88;;;4.90;100.00
12881;BME280;6508;53.786;9.996;2024-03-29T02:46:01;98952.50;;;4.96;100.00
12881;BME280;6508;53.786;9.996;2024-03-29T02:48:28;98947.72;;;4.93;100.00
12881;BME280;6508;53.786;9.996;2024-03-29T02:50:54;98951.88;;;4.99;100.00
12881;BME280;6508;53.786;9.996;2024-03-29T02:53:20;98964.13;;;4.97;100.00
12881;BME280;6508;53.786;9.996;2024-03-29T02:55:47;98956.81;;;4.89;100.00
12881;BME280;6508;53.786;9.996;2024-03-29T02:58:14;98950.28;;;4.81;100.00
12881;BME280;6508;53.786;9.996;2024-03-29T03:00:41;98955.03;;;4.75;100.00
12881;BME280;6508;53.786;9.996;2024-03-29T03:03:07;98946.13;;;4.75;100.00
12881;BME280;6508;53.786;9.996;2024-03-29T03:05:34;98957.41;;;4.77;100.00
12881;BME280;6508;53.786;9.996;2024-03-29T03:08:00;98941.97;;;4.69;100.00
12881;BME280;6508;53.786;9.996;2024-03-29T03:10:45;98940.56;;;4.71;100.00
12881;BME280;6508;53.786;9.996;2024-03-29T03:13:28;98933.56;;;4.70;100.00
12881;BME280;6508;53.786;9.996;2024-03-29T03:15:55;98928.47;;;4.60;100.00
12881;BME280;6508;53.786;9.996;2024-03-29T03:18:23;98932.47;;;4.63;100.00
12881;BME280;6508;53.786;9.996;2024-03-29T03:20:53;98919.09;;;4.58;100.00
12881;BME280;6508;53.786;9.996;2024-03-29T03:23:21;98912.09;;;4.57;100.00
12881;BME280;6508;53.786;9.996;2024-03-29T03:25:53;98915.13;;;4.46;100.00
12881;BME280;6508;53.786;9.996;2024-03-29T03:28:19;98922.09;;;4.39;100.00
12881;BME280;6508;53.786;9.996;2024-03-29T03:30:47;98913.31;;;4.33;100.00
12881;BME280;6508;53.786;9.996;2024-03-29T03:33:13;98906.34;;;4.32;100.00
12881;BME280;6508;53.786;9.996;2024-03-29T03:35:41;98910.09;;;4.14;100.00
12881;BME280;6508;53.786;9.996;2024-03-29T03:38:07;98908.53;;;4.13;100.00
12881;BME280;6508;53.786;9.996;2024-03-29T03:40:34;98912.00;;;4.05;100.00
12881;BME280;6508;53.786;9.996;2024-03-29T03:43:00;98914.06;;;4.08;100.00
12881;BME280;6508;53.786;9.996;2024-03-29T03:45:27;98923.38;;;4.02;100.00
12881;BME280;6508;53.786;9.996;2024-03-29T03:47:54;98927.66;;;3.94;100.00
12881;BME280;6508;53.786;9.996;2024-03-29T03:50:22;98930.81;;;3.87;100.00
12881;BME280;6508;53.786;9.996;2024-03-29T03:52:48;98937.81;;;3.88;100.00
12881;BME280;6508;53.786;9.996;2024-03-29T03:55:15;98949.63;;;3.70;100.00
12881;BME280;6508;53.786;9.996;2024-03-29T03:57:41;98949.00;;;3.73;100.00
12881;BME280;6508;53.786;9.996;2024-03-29T04:00:09;98956.84;;;3.61;100.00
12881;BME280;6508;53.786;9.996;2024-03-29T04:02:38;98966.31;;;3.50;100.00
12881;BME280;6508;53.786;9.996;2024-03-29T04:05:07;98966.63;;;3.48;100.00
12881;BME280;6508;53.786;9.996;2024-03-29T04:07:33;98967.09;;;3.50;100.00
12881;BME280;6508;53.786;9.996;2024-03-29T04:10:00;98969.25;;;3.62;100.00
12881;BME280;6508;53.786;9.996;2024-03-29T04:12:26;98964.78;;;3.57;100.00
12881;BME280;6508;53.786;9.996;2024-03-29T04:14:53;98965.09;;;3.56;100.00
12881;BME280;6508;53.786;9.996;2024-03-29T04:17:19;98956.00;;;3.52;100.00
12881;BME280;6508;53.786;9.996;2024-03-29T04:19:46;98953.97;;;3.57;100.00
12881;BME280;6508;53.786;9.996;2024-03-29T04:22:13;98961.28;;;3.57;100.00
12881;BME280;6508;53.786;9.996;2024-03-29T04:24:40;98956.31;;;3.50;100.00
12881;BME280;6508;53.786;9.996;2024-03-29T04:27:05;98947.91;;;3.52;100.00
12881;BME280;6508;53.786;9.996;2024-03-29T04:29:32;98962.25;;;3.61;100.00
12881;BME280;6508;53.786;9.996;2024-03-29T04:31:58;98951.97;;;3.63;100.00
12881;BME280;6508;53.786;9.996;2024-03-29T04:34:25;98946.41;;;3.68;100.00
12881;BME280;6508;53.786;9.996;2024-03-29T04:36:51;98939.63;;;3.71;100.00
12881;BME280;6508;53.786;9.996;2024-03-29T04:39:19;98938.19;;;3.73;100.00
12881;BME280;6508;53.786;9.996;2024-03-29T04:41:46;98938.31;;;3.68;100.00
12881;BME280;6508;53.786;9.996;2024-03-29T04:44:13;98932.94;;;3.68;100.00
12881;BME280;6508;53.786;9.996;2024-03-29T04:46:40;98927.41;;;3.73;100.00
12881;BME280;6508;53.786;9.996;2024-03-29T04:49:07;98932.50;;;3.75;100.00
12881;BME280;6508;53.786;9.996;2024-03-29T04:51:34;98938.88;;;3.79;100.00
12881;BME280;6508;53.786;9.996;2024-03-29T04:54:00;98933.28;;;3.75;100.00
12881;BME280;6508;53.786;9.996;2024-03-29T04:56:29;98947.44;;;3.81;100.00
12881;BME280;6508;53.786;9.996;2024-03-29T04:58:55;98946.38;;;3.90;100.00
12881;BME280;6508;53.786;9.996;2024-03-29T05:01:22;98964.94;;;3.92;100.00
12881;BME280;6508;53.786;9.996;2024-03-29T05:03:50;98962.44;;;3.95;100.00
12881;BME280;6508;53.786;9.996;2024-03-29T05:06:17;98955.94;;;3.97;100.00
12881;BME280;6508;53.786;9.996;2024-03-29T05:08:44;98961.34;;;3.97;100.00
12881;BME280;6508;53.786;9.996;2024-03-29T05:11:10;98970.66;;;3.90;100.00
12881;BME280;6508;53.786;9.996;2024-03-29T05:13:41;98984.03;;;3.95;100.00
12881;BME280;6508;53.786;9.996;2024-03-29T05:16:08;98972.59;;;3.99;100.00
12881;BME280;6508;53.786;9.996;2024-03-29T05:18:34;98963.53;;;3.94;100.00
12881;BME280;6508;53.786;9.996;2024-03-29T05:21:01;98967.47;;;3.88;100.00
12881;BME280;6508;53.786;9.996;2024-03-29T05:23:29;98971.28;;;3.87;100.00
12881;BME280;6508;53.786;9.996;2024-03-29T05:25:55;98977.00;;;3.94;100.00
12881;BME280;6508;53.786;9.996;2024-03-29T05:28:22;98977.88;;;4.04;100.00
12881;BME280;6508;53.786;9.996;2024-03-29T05:30:50;98975.50;;;4.11;100.00
12881;BME280;6508;53.786;9.996;2024-03-29T05:33:17;98971.41;;;4.13;100.00
12881;BME280;6508;53.786;9.996;2024-03-29T05:35:44;98968.53;;;4.18;100.00
12881;BME280;6508;53.786;9.996;2024-03-29T05:38:11;98992.22;;;4.13;100.00
12881;BME280;6508;53.786;9.996;2024-03-29T05:40:38;98990.47;;;4.17;100.00
12881;BME280;6508;53.786;9.996;2024-03-29T05:43:05;98987.00;;;4.25;100.00
12881;BME280;6508;53.786;9.996;2024-03-29T05:45:32;98992.13;;;4.35;100.00
12881;BME280;6508;53.786;9.996;2024-03-29T05:48:00;99001.69;;;4.41;100.00
12881;BME280;6508;53.786;9.996;2024-03-29T05:50:27;98989.97;;;4.55;100.00
12881;BME280;6508;53.786;9.996;2024-03-29T05:52:54;98984.25;;;4.56;100.00
12881;BME280;6508;53.786;9.996;2024-03-29T05:55:22;98997.59;;;4.70;100.00
12881;BME280;6508;53.786;9.996;2024-03-29T05:57:49;98993.81;;;4.71;100.00
12881;BME280;6508;53.786;9.996;2024-03-29T06:00:16;98999.53;;;4.78;100.00
12881;BME280;6508;53.786;9.996;2024-03-29T06:02:43;99007.38;;;4.88;100.00
12881;BME280;6508;53.786;9.996;2024-03-29T06:05:13;98994.78;;;4.92;100.00
12881;BME280;6508;53.786;9.996;2024-03-29T06:07:40;98990.50;;;5.00;100.00
12881;BME280;6508;53.786;9.996;2024-03-29T06:10:07;98999.41;;;5.09;100.00
12881;BME280;6508;53.786;9.996;2024-03-29T06:12:36;99013.91;;;5.04;100.00
12881;BME280;6508;53.786;9.996;2024-03-29T06:15:05;99007.38;;;5.14;100.00
12881;BME280;6508;53.786;9.996;2024-03-29T06:17:50;98998.31;;;5.19;100.00
12881;BME280;6508;53.786;9.996;2024-03-29T06:20:19;99000.69;;;5.20;100.00
12881;BME280;6508;53.786;9.996;2024-03-29T06:22:46;99014.84;;;5.26;100.00
12881;BME280;6508;53.786;9.996;2024-03-29T06:25:13;99016.44;;;5.27;100.00
12881;BME280;6508;53.786;9.996;2024-03-29T06:27:41;99015.00;;;5.29;100.00
12881;BME280;6508;53.786;9.996;2024-03-29T06:30:13;99013.41;;;5.37;100.00
12881;BME280;6508;53.786;9.996;2024-03-29T06:32:40;99014.84;;;5.43;100.00
12881;BME280;6508;53.786;9.996;2024-03-29T06:35:08;99019.13;;;5.53;100.00
12881;BME280;6508;53.786;9.996;2024-03-29T06:37:37;99029.81;;;5.58;100.00
12881;BME280;6508;53.786;9.996;2024-03-29T06:40:04;99031.72;;;5.49;100.00
12881;BME280;6508;53.786;9.996;2024-03-29T06:42:34;99027.44;;;5.56;100.00
12881;BME280;6508;53.786;9.996;2024-03-29T06:45:00;99015.81;;;5.64;100.00
12881;BME280;6508;53.786;9.996;2024-03-29T06:47:28;99028.53;;;5.64;100.00
12881;BME280;6508;53.786;9.996;2024-03-29T06:49:55;99030.91;;;5.74;100.00
12881;BME280;6508;53.786;9.996;2024-03-29T06:52:22;99015.28;;;5.71;100.00
12881;BME280;6508;53.786;9.996;2024-03-29T06:54:51;99014.66;;;5.74;100.00
12881;BME280;6508;53.786;9.996;2024-03-29T06:57:18;99023.22;;;5.85;100.00
12881;BME280;6508;53.786;9.996;2024-03-29T06:59:49;99016.69;;;5.86;100.00
12881;BME280;6508;53.786;9.996;2024-03-29T07:02:16;99017.81;;;5.85;100.00
12881;BME280;6508;53.786;9.996;2024-03-29T07:04:43;99017.03;;;5.93;100.00
12881;BME280;6508;53.786;9.996;2024-03-29T07:07:11;99020.72;;;5.97;100.00
12881;BME280;6508;53.786;9.996;2024-03-29T07:09:37;99027.50;;;6.03;100.00
12881;BME280;6508;53.786;9.996;2024-03-29T07:12:06;99040.91;;;6.08;100.00
12881;BME280;6508;53.786;9.996;2024-03-29T07:14:34;99037.06;;;6.09;100.00
12881;BME280;6508;53.786;9.996;2024-03-29T07:17:01;99033.25;;;6.10;100.00
12881;BME280;6508;53.786;9.996;2024-03-29T07:19:28;99033.41;;;6.14;100.00
12881;BME280;6508;53.786;9.996;2024-03-29T07:21:55;99041.94;;;6.33;100.00
12881;BME280;6508;53.786;9.996;2024-03-29T07:24:22;99037.97;;;6.31;100.00
12881;BME280;6508;53.786;9.996;2024-03-29T07:26:49;99049.75;;;6.26;100.00
12881;BME280;6508;53.786;9.996;2024-03-29T07:29:17;99051.19;;;6.32;100.00
12881;BME280;6508;53.786;9.996;2024-03-29T07:31:44;99058.63;;;6.44;100.00
12881;BME280;6508;53.786;9.996;2024-03-29T07:34:11;99058.28;;;6.45;100.00
12881;BME280;6508;53.786;9.996;2024-03-29T07:36:38;99064.34;;;6.51;100.00
12881;BME280;6508;53.786;9.996;2024-03-29T07:39:06;99061.88;;;6.67;100.00
12881;BME280;6508;53.786;9.996;2024-03-29T07:41:33;99050.53;;;6.73;100.00
12881;BME280;6508;53.786;9.996;2024-03-29T07:44:00;99066.53;;;6.87;100.00
12881;BME280;6508;53.786;9.996;2024-03-29T07:46:32;99074.63;;;6.96;100.00
12881;BME280;6508;53.786;9.996;2024-03-29T07:49:00;99084.34;;;6.97;100.00
12881;BME280;6508;53.786;9.996;2024-03-29T07:51:27;99089.31;;;6.95;100.00
12881;BME280;6508;53.786;9.996;2024-03-29T07:53:54;99085.75;;;7.03;100.00
12881;BME280;6508;53.786;9.996;2024-03-29T07:56:21;99091.88;;;7.21;100.00
12881;BME280;6508;53.786;9.996;2024-03-29T07:58:51;99091.38;;;7.27;100.00
12881;BME280;6508;53.786;9.996;2024-03-29T08:01:19;99097.59;;;7.28;100.00
12881;BME280;6508;53.786;9.996;2024-03-29T08:03:51;99099.00;;;7.34;100.00
12881;BME280;6508;53.786;9.996;2024-03-29T08:06:19;99110.06;;;7.50;100.00
12881;BME280;6508;53.786;9.996;2024-03-29T08:08:46;99108.72;;;7.35;100.00
12881;BME280;6508;53.786;9.996;2024-03-29T08:11:13;99119.44;;;7.52;100.00
12881;BME280;6508;53.786;9.996;2024-03-29T08:13:40;99116.72;;;7.73;100.00
12881;BME280;6508;53.786;9.996;2024-03-29T08:16:08;99117.94;;;7.84;100.00
12881;BME280;6508;53.786;9.996;2024-03-29T08:18:36;99120.19;;;7.82;100.00
12881;BME280;6508;53.786;9.996;2024-03-29T08:21:05;99125.47;;;8.00;100.00
12881;BME280;6508;53.786;9.996;2024-03-29T08:23:38;99132.25;;;8.06;100.00
12881;BME280;6508;53.786;9.996;2024-03-29T08:26:06;99124.34;;;8.01;100.00
12881;BME280;6508;53.786;9.996;2024-03-29T08:28:33;99120.75;;;8.09;100.00
12881;BME280;6508;53.786;9.996;2024-03-29T08:31:04;99129.09;;;8.04;100.00
12881;BME280;6508;53.786;9.996;2024-03-29T08:33:33;99118.59;;;8.14;100.00
12881;BME280;6508;53.786;9.996;2024-03-29T08:36:00;99110.13;;;8.16;100.00
12881;BME280;6508;53.786;9.996;2024-03-29T08:38:28;99107.44;;;8.28;100.00
12881;BME280;6508;53.786;9.996;2024-03-29T08:40:55;99087.22;;;8.05;100.00
12881;BME280;6508;53.786;9.996;2024-03-29T08:43:22;99097.69;;;8.60;100.00
12881;BME280;6508;53.786;9.996;2024-03-29T08:45:49;99091.22;;;8.53;100.00
12881;BME280;6508;53.786;9.996;2024-03-29T08:48:16;99089.19;;;8.50;100.00
12881;BME280;6508;53.786;9.996;2024-03-29T08:50:43;99093.28;;;8.68;100.00
12881;BME280;6508;53.786;9.996;2024-03-29T08:53:11;99087.47;;;8.57;100.00
12881;BME280;6508;53.786;9.996;2024-03-29T08:55:39;99088.47;;;8.40;100.00
12881;BME280;6508;53.786;9.996;2024-03-29T08:58:06;99085.28;;;8.38;100.00
12881;BME280;6508;53.786;9.996;2024-03-29T09:00:33;99079.47;;;8.28;100.00
12881;BME280;6508;53.786;9.996;2024-03-29T09:03:00;99067.88;;;8.52;100.00
12881;BME280;6508;53.786;9.996;2024-03-29T09:05:27;99082.38;;;8.43;100.00
12881;BME280;6508;53.786;9.996;2024-03-29T09:07:55;99080.44;;;8.44;100.00
12881;BME280;6508;53.786;9.996;2024-03-29T09:10:22;99088.03;;;8.51;100.00
12881;BME280;6508;53.786;9.996;2024-03-29T09:12:51;99089.63;;;8.52;100.00
12881;BME280;6508;53.786;9.996;2024-03-29T09:15:18;99091.44;;;8.60;100.00
12881;BME280;6508;53.786;9.996;2024-03-29T09:17:45;99103.72;;;8.78;100.00
12881;BME280;6508;53.786;9.996;2024-03-29T09:20:13;99092.91;;;8.45;100.00
12881;BME280;6508;53.786;9.996;2024-03-29T09:22:40;99083.97;;;8.69;100.00
12881;BME280;6508;53.786;9.996;2024-03-29T09:25:07;99085.13;;;8.80;100.00
12881;BME280;6508;53.786;9.996;2024-03-29T09:27:39;99077.19;;;8.75;100.00
12881;BME280;6508;53.786;9.996;2024-03-29T09:30:11;99075.47;;;8.95;100.00
12881;BME280;6508;53.786;9.996;2024-03-29T09:32:39;99087.47;;;9.06;100.00
12881;BME280;6508;53.786;9.996;2024-03-29T09:35:07;99079.78;;;9.08;100.00
12881;BME280;6508;53.786;9.996;2024-03-29T09:37:33;99070.81;;;9.08;100.00
12881;BME280;6508;53.786;9.996;2024-03-29T09:40:02;99078.06;;;9.28;100.00
12881;BME280;6508;53.786;9.996;2024-03-29T09:42:32;99072.84;;;9.23;100.00
12881;BME280;6508;53.786;9.996;2024-03-29T09:44:59;99061.50;;;9.21;100.00
12881;BME280;6508;53.786;9.996;2024-03-29T09:47:31;99067.09;;;8.76;100.00
12881;BME280;6508;53.786;9.996;2024-03-29T09:49:59;99068.56;;;8.73;100.00
12881;BME280;6508;53.786;9.996;2024-03-29T09:52:30;99066.63;;;8.73;100.00
12881;BME280;6508;53.786;9.996;2024-03-29T09:54:58;99061.75;;;8.42;100.00
12881;BME280;6508;53.786;9.996;2024-03-29T09:57:27;99068.56;;;8.61;100.00
12881;BME280;6508;53.786;9.996;2024-03-29T09:59:56;99079.75;;;8.47;100.00
12881;BME280;6508;53.786;9.996;2024-03-29T10:02:25;99068.53;;;8.49;100.00
12881;BME280;6508;53.786;9.996;2024-03-29T10:04:56;99062.41;;;8.39;100.00
12881;BME280;6508;53.786;9.996;2024-03-29T10:07:24;99055.59;;;8.33;100.00
12881;BME280;6508;53.786;9.996;2024-03-29T10:09:51;99050.13;;;8.21;100.00
12881;BME280;6508;53.786;9.996;2024-03-29T10:12:20;99044.56;;;8.17;100.00
12881;BME280;6508;53.786;9.996;2024-03-29T10:14:48;99052.25;;;8.15;100.00
12881;BME280;6508;53.786;9.996;2024-03-29T10:17:18;99041.97;;;8.21;100.00
12881;BME280;6508;53.786;9.996;2024-03-29T10:19:46;99043.09;;;8.08;100.00
12881;BME280;6508;53.786;9.996;2024-03-29T10:22:14;99053.06;;;8.16;100.00
12881;BME280;6508;53.786;9.996;2024-03-29T10:24:42;99051.59;;;8.31;100.00
12881;BME280;6508;53.786;9.996;2024-03-29T10:27:08;99053.53;;;8.18;100.00
12881;BME280;6508;53.786;9.996;2024-03-29T10:29:35;99063.59;;;8.17;100.00
12881;BME280;6508;53.786;9.996;2024-03-29T10:32:02;99054.66;;;8.29;100.00
12881;BME280;6508;53.786;9.996;2024-03-29T10:34:30;99040.41;;;8.32;100.00
12881;BME280;6508;53.786;9.996;2024-03-29T10:37:01;99036.38;;;8.38;100.00
12881;BME280;6508;53.786;9.996;2024-03-29T10:39:30;99028.66;;;8.65;100.00
12881;BME280;6508;53.786;9.996;2024-03-29T10:42:00;99032.53;;;8.64;100.00
12881;BME280;6508;53.786;9.996;2024-03-29T10:44:29;99028.19;;;8.26;100.00
12881;BME280;6508;53.786;9.996;2024-03-29T10:46:57;99025.75;;;8.58;100.00
12881;BME280;6508;53.786;9.996;2024-03-29T10:49:24;99034.09;;;8.65;100.00
12881;BME280;6508;53.786;9.996;2024-03-29T10:51:53;99042.50;;;8.60;100.00
12881;BME280;6508;53.786;9.996;2024-03-29T10:54:22;99028.47;;;8.58;100.00
12881;BME280;6508;53.786;9.996;2024-03-29T10:56:56;99045.56;;;8.46;100.00
12881;BME280;6508;53.786;9.996;2024-03-29T10:59:46;99042.28;;;8.65;100.00
12881;BME280;6508;53.786;9.996;2024-03-29T11:02:26;99042.25;;;8.40;100.00
12881;BME280;6508;53.786;9.996;2024-03-29T11:04:57;99033.00;;;8.41;100.00
12881;BME280;6508;53.786;9.996;2024-03-29T11:07:34;99033.72;;;8.30;100.00
12881;BME280;6508;53.786;9.996;2024-03-29T11:10:04;99027.75;;;8.36;100.00
12881;BME280;6508;53.786;9.996;2024-03-29T11:12:45;99028.22;;;8.51;100.00
12881;BME280;6508;53.786;9.996;2024-03-29T11:15:28;99032.75;;;8.46;100.00
12881;BME280;6508;53.786;9.996;2024-03-29T11:17:56;99050.78;;;8.51;100.00
12881;BME280;6508;53.786;9.996;2024-03-29T11:20:24;99058.81;;;8.60;100.00
12881;BME280;6508;53.786;9.996;2024-03-29T11:23:01;99055.53;;;8.42;100.00
12881;BME280;6508;53.786;9.996;2024-03-29T11:25:42;99053.94;;;8.53;100.00
12881;BME280;6508;53.786;9.996;2024-03-29T11:28:11;99049.19;;;8.50;100.00
12881;BME280;6508;53.786;9.996;2024-03-29T11:30:41;99049.88;;;8.71;100.00
12881;BME280;6508;53.786;9.996;2024-03-29T11:33:29;99057.25;;;8.59;100.00
12881;BME280;6508;53.786;9.996;2024-03-29T11:35:56;99050.63;;;8.48;100.00
12881;BME280;6508;53.786;9.996;2024-03-29T11:38:31;99057.03;;;8.76;100.00
12881;BME280;6508;53.786;9.996;2024-03-29T11:41:04;99064.38;;;8.88;100.00
12881;BME280;6508;53.786;9.996;2024-03-29T11:43:34;99072.19;;;8.77;100.00
12881;BME280;6508;53.786;9.996;2024-03-29T11:46:07;99075.72;;;8.78;100.00
12881;BME280;6508;53.786;9.996;2024-03-29T11:48:35;99071.03;;;8.66;100.00
12881;BME280;6508;53.786;9.996;2024-03-29T11:51:03;99071.50;;;8.80;100.00
12881;BME280;6508;53.786;9.996;2024-03-29T11:53:31;99069.47;;;8.77;100.00
12881;BME280;6508;53.786;9.996;2024-03-29T11:55:58;99059.63;;;8.85;100.00
12881;BME280;6508;53.786;9.996;2024-03-29T11:58:27;99046.13;;;8.76;100.00
12881;BME280;6508;53.786;9.996;2024-03-29T12:00:57;99026.84;;;8.93;100.00
12881;BME280;6508;53.786;9.996;2024-03-29T12:03:25;99030.81;;;8.96;100.00
12881;BME280;6508;53.786;9.996;2024-03-29T12:05:53;99039.72;;;9.21;100.00
12881;BME280;6508;53.786;9.996;2024-03-29T12:08:21;99050.84;;;9.16;100.00
12881;BME280;6508;53.786;9.996;2024-03-29T12:10:48;99062.59;;;9.32;100.00
12881;BME280;6508;53.786;9.996;2024-03-29T12:13:16;99054.69;;;9.27;100.00
12881;BME280;6508;53.786;9.996;2024-03-29T12:15:44;99063.75;;;9.71;100.00
12881;BME280;6508;53.786;9.996;2024-03-29T12:18:13;99057.72;;;9.38;100.00
12881;BME280;6508;53.786;9.996;2024-03-29T12:20:42;99053.59;;;9.56;100.00
12881;BME280;6508;53.786;9.996;2024-03-29T12:23:12;99044.19;;;9.81;100.00
12881;BME280;6508;53.786;9.996;2024-03-29T12:25:40;99054.31;;;10.25;100.00
12881;BME280;6508;53.786;9.996;2024-03-29T12:28:07;99031.97;;;9.91;100.00
12881;BME280;6508;53.786;9.996;2024-03-29T12:30:34;99027.78;;;10.37;100.00
12881;BME280;6508;53.786;9.996;2024-03-29T12:33:02;99038.19;;;10.98;100.00
12881;BME280;6508;53.786;9.996;2024-03-29T12:35:30;99033.09;;;10.97;100.00
12881;BME280;6508;53.786;9.996;2024-03-29T12:37:58;99038.53;;;11.51;100.00
12881;BME280;6508;53.786;9.996;2024-03-29T12:40:26;99036.34;;;11.96;100.00
12881;BME280;6508;53.786;9.996;2024-03-29T12:42:56;99039.00;;;11.92;100.00
12881;BME280;6508;53.786;9.996;2024-03-29T12:45:24;99038.63;;;11.94;100.00
12881;BME280;6508;53.786;9.996;2024-03-29T12:47:51;99032.00;;;12.37;100.00
12881;BME280;6508;53.786;9.996;2024-03-29T12:50:24;99050.31;;;11.91;100.00
12881;BME280;6508;53.786;9.996;2024-03-29T12:52:53;99055.44;;;11.76;100.00
12881;BME280;6508;53.786;9.996;2024-03-29T12:55:20;99058.75;;;11.47;100.00
12881;BME280;6508;53.786;9.996;2024-03-29T12:57:47;99047.94;;;11.35;100.00
12881;BME280;6508;53.786;9.996;2024-03-29T13:00:15;99039.16;;;11.61;100.00
12881;BME280;6508;53.786;9.996;2024-03-29T13:02:43;99041.22;;;11.67;100.00
12881;BME280;6508;53.786;9.996;2024-03-29T13:05:10;99031.44;;;11.47;100.00
12881;BME280;6508;53.786;9.996;2024-03-29T13:07:37;99041.72;;;11.53;100.00
12881;BME280;6508;53.786;9.996;2024-03-29T13:10:06;99058.06;;;11.89;100.00
12881;BME280;6508;53.786;9.996;2024-03-29T13:12:39;99062.28;;;11.67;100.00
12881;BME280;6508;53.786;9.996;2024-03-29T13:15:16;99072.47;;;11.50;100.00